Time;durP1;ratioP1;P1;durP2;ratioP2;P2;SDS_P1;SDS_P2;PMS_P1;PMS_P2;Temp;Humidity;BMP_temperature;BMP_pressure;BME280_temperature;BME280_humidity;BME280_pressure;Samples;Min_cycle;Max_cycle;Signal;HPM_P1;HPM_P2
2022/06/22 00:00:16;;;;;;;10.18;7.20;;;13.70;99.90;;;;;;5092553;28;20846;-51
2022/06/22 00:02:43;;;;;;;10.20;7.63;;;13.60;99.90;;;;;;5092703;28;20032;-51
2022/06/22 00:05:21;;;;;;;9.70;7.05;;;13.60;99.90;;;;;;5092403;28;20054;-48
2022/06/22 00:08:00;;;;;;;12.77;7.28;;;13.70;99.90;;;;;;5092375;28;20474;-48
2022/06/22 00:10:37;;;;;;;14.98;7.45;;;13.60;99.90;;;;;;5092220;28;20520;-49
2022/06/22 00:13:04;;;;;;;9.90;7.22;;;13.60;99.90;;;;;;5092525;28;20402;-47
2022/06/22 00:15:36;;;;;;;14.93;8.13;;;13.60;99.90;;;;;;5092110;28;20100;-49
2022/06/22 00:18:18;;;;;;;10.27;7.95;;;13.50;99.90;;;;;;5092425;28;20499;-48
2022/06/22 00:20:50;;;;;;;15.32;7.65;;;13.50;99.90;;;;;;5092283;28;20120;-51
2022/06/22 00:23:15;;;;;;;10.60;7.55;;;13.50;99.90;;;;;;5092462;28;20507;-49
2022/06/22 00:25:41;;;;;;;9.32;7.00;;;13.50;99.90;;;;;;5092071;28;20119;-47
2022/06/22 00:28:29;;;;;;;10.38;7.32;;;13.60;99.90;;;;;;5090699;28;20054;-48
2022/06/22 00:31:20;;;;;;;8.40;6.45;;;13.40;99.90;;;;;;5091748;28;20102;-49
2022/06/22 00:34:24;;;;;;;8.20;7.22;;;13.40;99.90;;;;;;5076780;28;20433;-48
2022/06/22 00:37:01;;;;;;;10.40;7.25;;;13.20;99.90;;;;;;5071488;28;20114;-47
2022/06/22 00:39:29;;;;;;;8.57;5.90;;;13.20;99.90;;;;;;5071582;28;20051;-48
2022/06/22 00:42:14;;;;;;;6.97;6.28;;;13.20;99.90;;;;;;5070067;28;20052;-51
2022/06/22 00:45:04;;;;;;;8.18;6.53;;;13.10;99.90;;;;;;5058856;28;20036;-48
2022/06/22 00:47:36;;;;;;;10.60;7.10;;;13.10;99.90;;;;;;5071482;28;20055;-47
2022/06/22 00:50:13;;;;;;;11.25;8.15;;;13.00;99.90;;;;;;5071610;28;20040;-49
2022/06/22 00:53:00;;;;;;;12.70;8.27;;;13.00;99.90;;;;;;5070116;28;20035;-48
2022/06/22 00:55:32;;;;;;;13.30;9.75;;;13.10;99.90;;;;;;5071557;28;20407;-48
2022/06/22 00:58:32;;;;;;;13.45;8.80;;;13.00;99.90;;;;;;5058275;28;20044;-48
2022/06/22 01:01:13;;;;;;;11.70;8.65;;;13.00;99.90;;;;;;5071453;28;20086;-47
2022/06/22 01:03:46;;;;;;;11.35;8.15;;;12.90;99.90;;;;;;5071337;28;20039;-47
2022/06/22 01:06:43;;;;;;;13.55;8.88;;;12.80;99.90;;;;;;5071453;28;20107;-48
2022/06/22 01:09:13;;;;;;;11.77;8.30;;;12.80;99.90;;;;;;5059183;28;20044;-48
2022/06/22 01:12:22;;;;;;;9.77;8.10;;;12.80;99.90;;;;;;5071447;28;20040;-49
2022/06/22 01:14:58;;;;;;;15.25;9.38;;;12.70;99.90;;;;;;5063374;28;20048;-46
2022/06/22 01:17:29;;;;;;;13.68;7.80;;;12.70;99.90;;;;;;5070169;28;20372;-48
2022/06/22 01:20:20;;;;;;;9.98;7.88;;;12.80;99.90;;;;;;5088938;28;20040;-51
2022/06/22 01:23:00;;;;;;;8.00;7.20;;;12.70;99.90;;;;;;5055222;28;20047;-48
2022/06/22 01:26:13;;;;;;;13.25;8.52;;;12.70;99.90;;;;;;5094537;28;20378;-47
2022/06/22 01:28:39;;;;;;;12.00;8.52;;;12.60;99.90;;;;;;5052820;28;20048;-47
2022/06/22 01:31:12;;;;;;;10.50;7.63;;;12.50;99.90;;;;;;5052824;28;20048;-51
2022/06/22 01:33:43;;;;;;;12.85;8.98;;;12.50;99.90;;;;;;5053167;28;20063;-50
2022/06/22 01:36:22;;;;;;;8.43;6.68;;;12.40;99.90;;;;;;5052567;28;20075;-51
2022/06/22 01:38:48;;;;;;;5.40;4.90;;;12.50;99.90;;;;;;5052741;28;20133;-47
2022/06/22 01:41:32;;;;;;;6.88;4.88;;;12.40;99.90;;;;;;5052699;28;20076;-47
2022/06/22 01:44:00;;;;;;;6.00;4.82;;;12.50;99.90;;;;;;5052579;28;20044;-49
2022/06/22 01:46:52;;;;;;;6.22;4.40;;;12.40;99.90;;;;;;5052586;28;20098;-49
2022/06/22 01:49:30;;;;;;;3.30;2.95;;;12.30;99.90;;;;;;5052292;28;20075;-48
2022/06/22 01:52:06;;;;;;;3.60;2.90;;;12.20;99.90;;;;;;5052519;28;20080;-49
2022/06/22 01:54:40;;;;;;;3.15;2.85;;;12.10;99.90;;;;;;5052525;28;20060;-47
2022/06/22 01:57:14;;;;;;;3.97;2.45;;;12.00;99.90;;;;;;5052564;28;20110;-51
2022/06/22 01:59:58;;;;;;;13.00;3.88;;;11.90;99.90;;;;;;5052073;28;20040;-48
2022/06/22 02:02:31;;;;;;;2.15;1.95;;;11.80;99.90;;;;;;5052451;28;20124;-49
2022/06/22 02:05:02;;;;;;;2.10;1.88;;;11.80;99.90;;;;;;5056766;28;20041;-47
2022/06/22 02:07:44;;;;;;;2.95;2.63;;;11.80;99.90;;;;;;5074427;28;20493;-46
2022/06/22 02:10:34;;;;;;;5.90;4.38;;;11.70;99.90;;;;;;5074440;28;20044;-47
2022/06/22 02:13:28;;;;;;;8.63;4.70;;;11.50;99.90;;;;;;5074408;28;20055;-50
2022/06/22 02:16:31;;;;;;;13.77;5.88;;;11.50;99.90;;;;;;5072490;28;20279;-48
2022/06/22 02:18:57;;;;;;;13.05;7.50;;;11.50;99.90;;;;;;5072851;28;20047;-48
2022/06/22 02:21:37;;;;;;;9.68;6.70;;;11.50;99.90;;;;;;5073200;28;20045;-48
2022/06/22 02:24:11;;;;;;;10.50;5.75;;;11.40;99.90;;;;;;5060716;28;20048;-50
2022/06/22 02:26:52;;;;;;;7.18;5.35;;;11.40;99.90;;;;;;5074317;28;20044;-45
2022/06/22 02:29:22;;;;;;;4.55;3.88;;;11.30;99.90;;;;;;5060963;28;20052;-48
2022/06/22 02:31:49;;;;;;;3.90;3.50;;;11.30;99.90;;;;;;5073349;28;20036;-49
2022/06/22 02:34:16;;;;;;;3.17;2.88;;;11.40;99.90;;;;;;5074262;28;20090;-46
2022/06/22 02:36:46;;;;;;;3.30;3.00;;;11.30;99.90;;;;;;5074111;28;20039;-46
2022/06/22 02:39:13;;;;;;;3.40;3.10;;;11.30;99.90;;;;;;5073701;28;20491;-46
2022/06/22 02:44:45;;;;;;;2.88;2.67;;;11.20;99.90;;;;;;5051600;28;20136;-47
2022/06/22 02:47:25;;;;;;;2.95;2.65;;;11.30;99.90;;;;;;5035160;28;20061;-47
2022/06/22 02:49:59;;;;;;;3.22;2.92;;;11.30;99.90;;;;;;5051618;28;20454;-46
2022/06/22 02:52:34;;;;;;;2.17;1.98;;;11.40;99.90;;;;;;5051245;28;20064;-47
2022/06/22 02:55:01;;;;;;;2.25;1.95;;;11.30;99.90;;;;;;5051487;28;20044;-47
2022/06/22 02:57:45;;;;;;;2.45;2.20;;;11.30;99.90;;;;;;5051234;28;20116;-47
2022/06/22 03:00:13;;;;;;;2.00;1.90;;;11.20;99.90;;;;;;5034826;28;20554;-50
2022/06/22 03:02:41;;;;;;;26.75;2.97;;;11.20;99.90;;;;;;5051332;28;20051;-47
2022/06/22 03:05:07;;;;;;;76.30;4.63;;;11.00;99.90;;;;;;5051042;28;20044;-47
2022/06/22 03:07:38;;;;;;;3.53;1.42;;;10.80;99.90;;;;;;5050971;28;20051;-49
2022/06/22 03:10:05;;;;;;;62.85;3.85;;;10.90;99.90;;;;;;5034259;28;20045;-49
2022/06/22 03:12:31;;;;;;;2.30;1.52;;;10.70;99.90;;;;;;5051159;28;20044;-49
2022/06/22 03:15:02;;;;;;;2.67;1.63;;;10.70;99.90;;;;;;5052407;28;20103;-53
2022/06/22 03:17:35;;;;;;;3.75;2.03;;;10.70;99.90;;;;;;5071666;28;20048;-47
2022/06/22 03:20:11;;;;;;;7.90;2.40;;;10.70;99.90;;;;;;5073323;28;20086;-48
2022/06/22 03:22:44;;;;;;;16.63;3.97;;;10.70;99.90;;;;;;5073232;28;20025;-51
2022/06/22 03:25:24;;;;;;;23.45;4.03;;;10.60;99.90;;;;;;5071821;28;20078;-50
2022/06/22 03:28:03;;;;;;;3.90;3.08;;;10.70;99.90;;;;;;5072820;28;20095;-48
2022/06/22 03:30:36;;;;;;;6.22;4.10;;;10.70;99.90;;;;;;5073116;28;20124;-48
2022/06/22 03:33:10;;;;;;;5.75;3.72;;;10.70;99.90;;;;;;5072999;28;20051;-46
2022/06/22 03:35:48;;;;;;;5.97;4.68;;;10.70;99.90;;;;;;5072829;28;20040;-47
2022/06/22 03:38:24;;;;;;;35.60;7.40;;;10.60;99.90;;;;;;5072956;28;20109;-46
2022/06/22 03:40:57;;;;;;;5.63;4.43;;;10.60;99.90;;;;;;5072283;28;20105;-50
2022/06/22 03:43:32;;;;;;;7.88;5.10;;;10.60;99.90;;;;;;5072783;28;20079;-49
2022/06/22 03:46:13;;;;;;;5.18;4.65;;;10.60;99.90;;;;;;5072544;28;20032;-46
2022/06/22 03:48:46;;;;;;;5.03;4.53;;;10.60;99.90;;;;;;5072450;28;20033;-47
2022/06/22 03:51:23;;;;;;;7.00;4.93;;;10.60;99.90;;;;;;5072839;28;20040;-46
2022/06/22 03:54:03;;;;;;;5.75;5.03;;;10.60;99.90;;;;;;5072418;28;20502;-47
2022/06/22 03:56:32;;;;;;;5.25;4.63;;;10.60;99.90;;;;;;5058544;28;20489;-49
2022/06/22 03:59:01;;;;;;;5.47;4.38;;;10.70;99.90;;;;;;5072350;28;20037;-48
2022/06/22 04:01:27;;;;;;;6.95;5.28;;;10.70;99.90;;;;;;5072025;28;20389;-47
2022/06/22 04:03:55;;;;;;;5.38;4.85;;;10.70;99.90;;;;;;5072465;28;20040;-47
2022/06/22 04:06:34;;;;;;;6.82;5.15;;;10.80;99.90;;;;;;5072339;28;20394;-50
2022/06/22 04:09:02;;;;;;;5.88;5.28;;;10.90;99.90;;;;;;5072145;28;20037;-47
2022/06/22 04:12:01;;;;;;;6.18;5.05;;;10.90;99.90;;;;;;5072014;28;20047;-48
2022/06/22 04:14:44;;;;;;;5.78;4.10;;;10.90;99.90;;;;;;5072236;28;20036;-47
2022/06/22 04:17:32;;;;;;;7.88;6.20;;;11.00;99.90;;;;;;5072167;28;20068;-46
2022/06/22 04:20:14;;;;;;;6.97;4.95;;;11.00;99.90;;;;;;5049492;28;20048;-46
2022/06/22 04:22:42;;;;;;;7.28;5.18;;;11.10;99.90;;;;;;5049758;28;20060;-48
2022/06/22 04:25:30;;;;;;;6.45;5.60;;;11.20;99.90;;;;;;5049957;28;20128;-48
2022/06/22 04:28:00;;;;;;;6.53;5.88;;;11.30;99.90;;;;;;5033150;28;20061;-46
2022/06/22 04:30:30;;;;;;;10.60;6.40;;;11.50;99.90;;;;;;5049590;28;20040;-45
2022/06/22 04:33:12;;;;;;;8.85;6.75;;;11.50;99.90;;;;;;5049684;28;20033;-45
2022/06/22 04:35:49;;;;;;;9.60;7.05;;;11.60;99.90;;;;;;5049722;28;20689;-48
2022/06/22 04:38:33;;;;;;;11.02;7.95;;;11.70;99.90;;;;;;5049798;28;20052;-50
2022/06/22 04:41:17;;;;;;;10.63;9.27;;;11.90;99.90;;;;;;5032266;28;20052;-46
2022/06/22 04:43:44;;;;;;;13.20;8.15;;;12.00;99.90;;;;;;5049303;28;20426;-48
2022/06/22 04:46:15;;;;;;;10.65;7.95;;;12.20;99.90;;;;;;5049493;28;20076;-47
2022/06/22 04:48:47;;;;;;;9.73;8.13;;;12.20;99.90;;;;;;5067425;28;20494;-47
2022/06/22 04:51:20;;;;;;;13.20;9.13;;;12.40;99.90;;;;;;5069145;28;20055;-49
2022/06/22 04:53:59;;;;;;;11.32;8.30;;;12.40;99.90;;;;;;5068782;28;20044;-48
2022/06/22 04:56:37;;;;;;;12.80;8.65;;;12.60;99.90;;;;;;5074561;28;20036;-48
2022/06/22 04:59:06;;;;;;;11.35;9.18;;;12.70;99.90;;;;;;5091656;28;20042;-50
2022/06/22 05:01:47;;;;;;;11.07;9.10;;;12.80;99.90;;;;;;5074646;28;20037;-46
2022/06/22 05:04:18;;;;;;;15.20;10.68;;;13.00;99.90;;;;;;5071700;28;20123;-50
2022/06/22 05:07:07;;;;;;;16.48;11.02;;;13.00;99.90;;;;;;5071407;28;20115;-45
2022/06/22 05:09:57;;;;;;;14.45;11.18;;;13.10;99.90;;;;;;5071224;28;20052;-48
2022/06/22 05:12:25;;;;;;;15.60;11.27;;;13.30;99.90;;;;;;5070424;28;20041;-50
2022/06/22 05:14:55;;;;;;;13.00;10.73;;;13.40;99.90;;;;;;5071535;28;20068;-49
2022/06/22 05:17:36;;;;;;;20.67;11.82;;;13.50;99.90;;;;;;5071340;28;20498;-48
2022/06/22 05:20:15;;;;;;;15.32;11.57;;;13.60;99.90;;;;;;5069641;28;20051;-47
2022/06/22 05:22:40;;;;;;;16.63;11.30;;;13.70;99.90;;;;;;5071507;28;20033;-47
2022/06/22 05:25:09;;;;;;;16.55;11.70;;;13.90;99.90;;;;;;5071277;28;20047;-48
2022/06/22 05:27:56;;;;;;;;;;;13.90;99.90;;;;;;5071331;28;20487;-47
2022/06/22 05:30:22;;;;;;;20.23;12.43;;;14.10;99.90;;;;;;5070770;28;19966;-46
2022/06/22 05:32:53;;;;;;;17.52;11.95;;;14.20;99.90;;;;;;5071219;28;20115;-50
2022/06/22 05:35:25;;;;;;;17.73;11.32;;;14.30;99.90;;;;;;5069749;28;20051;-46
2022/06/22 05:37:53;;;;;;;17.90;11.90;;;14.30;99.90;;;;;;5071438;28;20374;-52
2022/06/22 05:40:21;;;;;;;16.33;10.70;;;14.40;99.90;;;;;;5070986;28;20097;-51
2022/06/22 05:42:47;;;;;;;14.20;10.45;;;14.60;99.90;;;;;;5071074;28;20378;-48
2022/06/22 05:45:21;;;;;;;15.65;8.80;;;14.70;99.90;;;;;;5071064;28;20040;-50
2022/06/22 05:47:47;;;;;;;13.68;9.85;;;14.70;99.90;;;;;;5069597;28;20045;-48
2022/06/22 05:50:41;;;;;;;10.38;8.02;;;14.80;99.90;;;;;;5070892;28;20487;-47
2022/06/22 05:53:23;;;;;;;10.13;8.75;;;14.90;99.90;;;;;;5058745;28;20119;-47
2022/06/22 05:56:12;;;;;;;12.93;7.68;;;15.00;99.90;;;;;;5070832;28;20089;-52
2022/06/22 05:59:03;;;;;;;12.82;7.45;;;15.10;99.90;;;;;;5070959;28;20089;-47
2022/06/22 06:01:50;;;;;;;9.85;6.70;;;15.30;99.90;;;;;;5066347;28;20569;-48
2022/06/22 06:04:37;;;;;;;13.30;6.45;;;15.40;99.90;;;;;;5071666;28;20044;-47
2022/06/22 06:07:37;;;;;;;13.20;7.78;;;15.50;99.90;;;;;;5061128;28;20506;-47
2022/06/22 06:10:11;;;;;;;11.15;6.25;;;15.70;99.90;;;;;;5051903;28;20059;-48
2022/06/22 06:12:41;;;;;;;13.63;6.68;;;15.90;99.90;;;;;;5052150;28;20048;-50
2022/06/22 06:15:12;;;;;;;11.65;5.28;;;16.00;99.90;;;;;;5052075;28;20037;-49
2022/06/22 06:17:48;;;;;;;8.93;4.80;;;16.00;99.90;;;;;;5052027;28;20048;-46
2022/06/22 06:20:29;;;;;;;8.30;4.43;;;16.20;99.90;;;;;;5051643;28;20080;-47
2022/06/22 06:23:14;;;;;;;7.47;4.38;;;16.30;99.90;;;;;;5051878;28;20048;-48
2022/06/22 06:28:50;;;;;;;9.18;4.13;;;16.60;99.90;;;;;;5067615;28;20510;-50
2022/06/22 06:31:29;;;;;;;6.75;4.00;;;16.80;99.90;;;;;;5071720;28;20048;-52
2022/06/22 06:33:56;;;;;;;5.75;2.83;;;17.00;99.90;;;;;;5072037;28;20056;-51
2022/06/22 06:36:29;;;;;;;11.15;3.63;;;17.10;99.90;;;;;;5071718;28;20051;-52
2022/06/22 06:39:08;;;;;;;6.75;3.17;;;17.30;99.90;;;;;;5071847;28;20048;-51
2022/06/22 06:41:38;;;;;;;9.57;3.88;;;17.60;99.90;;;;;;5071634;28;20097;-51
2022/06/22 06:44:10;;;;;;;14.60;2.90;;;17.60;99.90;;;;;;5071818;28;20056;-50
2022/06/22 06:46:39;;;;;;;6.75;2.92;;;17.70;99.90;;;;;;5085303;28;20048;-51
2022/06/22 06:49:05;;;;;;;;;;;17.90;99.90;;;;;;5094412;28;20051;-51
2022/06/22 06:51:32;;;;;;;6.22;2.90;;;18.30;99.90;;;;;;5089420;28;19916;-48
2022/06/22 06:54:06;;;;;;;9.00;2.95;;;18.40;99.90;;;;;;5084447;28;20043;-52
2022/06/22 06:56:46;;;;;;;8.73;3.10;;;18.70;99.90;;;;;;5093679;28;20036;-50
2022/06/22 06:59:21;;;;;;;9.32;3.05;;;18.80;99.90;;;;;;5094010;28;20044;-50
2022/06/22 07:01:49;;;;;;;8.23;3.08;;;18.90;99.90;;;;;;5074320;28;20035;-49
2022/06/22 07:04:24;;;;;;;9.52;2.67;;;19.20;99.90;;;;;;5073523;28;20028;-51
2022/06/22 07:06:54;;;;;;;10.05;3.35;;;19.40;99.90;;;;;;5073598;28;20120;-50
2022/06/22 07:09:30;;;;;;;9.48;3.13;;;19.50;99.90;;;;;;5073448;28;20079;-51
2022/06/22 07:12:30;;;;;;;5.90;2.60;;;19.70;99.90;;;;;;5072181;28;20272;-50
2022/06/22 07:15:00;;;;;;;10.52;2.90;;;20.00;99.90;;;;;;5072294;28;20079;-51
2022/06/22 07:17:27;;;;;;;5.95;2.50;;;20.10;99.90;;;;;;5072846;28;20494;-51
2022/06/22 07:20:01;;;;;;;10.70;3.35;;;20.30;99.90;;;;;;5073313;28;20050;-52
2022/06/22 07:22:42;;;;;;;11.00;2.60;;;20.50;99.90;;;;;;5073329;28;20036;-53
2022/06/22 07:25:17;;;;;;;6.38;2.75;;;20.70;99.90;;;;;;5072991;28;20089;-49
2022/06/22 07:27:49;;;;;;;6.78;2.78;;;20.80;99.90;;;;;;5072639;28;20059;-52
2022/06/22 07:30:31;;;;;;;7.90;3.15;;;21.10;99.90;;;;;;5073231;28;20049;-47
2022/06/22 07:33:09;;;;;;;7.28;2.50;;;20.70;99.90;;;;;;5073111;28;20475;-50
2022/06/22 07:35:47;;;;;;;13.20;3.35;;;20.70;99.90;;;;;;5072728;28;20040;-51
2022/06/22 07:38:25;;;;;;;5.15;2.47;;;20.80;99.90;;;;;;5072864;28;20049;-50
2022/06/22 07:43:36;;;;;;;8.10;3.00;;;20.70;99.90;;;;;;5073007;28;20410;-52
2022/06/22 07:46:02;;;;;;;5.18;2.38;;;21.30;99.90;;;;;;5072737;28;20048;-51
2022/06/22 07:48:33;;;;;;;7.20;2.42;;;21.70;99.90;;;;;;5071513;28;20054;-51
2022/06/22 07:51:04;;;;;;;6.68;2.88;;;21.90;99.90;;;;;;5071179;28;20043;-53
2022/06/22 07:53:46;;;;;;;4.25;2.08;;;22.20;99.90;;;;;;5072973;28;20045;-52
2022/06/22 07:56:30;;;;;;;6.78;2.70;;;22.40;99.90;;;;;;5072637;28;20036;-51
2022/06/22 07:59:03;;;;;;;5.30;2.50;;;22.50;99.90;;;;;;5072444;28;20047;-52
2022/06/22 08:01:37;;;;;;;5.72;2.28;;;22.30;99.90;;;;;;5072472;28;20536;-52
2022/06/22 08:04:10;;;;;;;9.20;2.60;;;22.50;99.90;;;;;;5072445;28;20157;-51
2022/06/22 08:06:49;;;;;;;7.68;3.08;;;22.60;99.90;;;;;;5072133;28;20065;-52
2022/06/22 08:09:34;;;;;;;9.25;3.00;;;22.90;99.90;;;;;;5086173;28;20405;-53
2022/06/22 08:12:09;;;;;;;8.82;3.00;;;23.20;99.90;;;;;;5092580;28;20083;-53
2022/06/22 08:14:40;;;;;;;8.02;2.80;;;23.50;99.90;;;;;;5092573;28;20031;-50
2022/06/22 08:17:20;;;;;;;5.43;2.70;;;23.40;99.90;;;;;;5092325;28;20047;-51
2022/06/22 08:19:45;;;;;;;6.43;2.75;;;23.30;99.90;;;;;;5092365;28;20036;-52
2022/06/22 08:22:12;;;;;;;10.70;3.00;;;23.20;99.90;;;;;;5092417;28;20094;-51
2022/06/22 08:24:46;;;;;;;8.02;3.40;;;23.00;99.90;;;;;;5092068;28;20043;-50
2022/06/22 08:27:18;;;;;;;8.13;3.58;;;23.10;99.90;;;;;;5091790;28;20039;-51
2022/06/22 08:29:45;;;;;;;6.82;3.38;;;23.10;99.90;;;;;;5091451;28;20043;-50
2022/06/22 08:32:34;;;;;;;7.47;3.30;;;23.30;99.90;;;;;;5092250;28;20141;-52
2022/06/22 08:35:21;;;;;;;5.97;3.03;;;23.50;99.90;;;;;;5069450;28;20052;-50
2022/06/22 08:38:03;;;;;;;7.75;3.55;;;23.50;99.90;;;;;;5069669;28;20684;-52
2022/06/22 08:40:47;;;;;;;7.75;4.28;;;24.00;99.90;;;;;;5069347;28;20041;-51
2022/06/22 08:43:19;;;;;;;10.90;4.65;;;24.40;99.90;;;;;;5069557;28;20119;-50
2022/06/22 08:46:03;;;;;;;9.88;4.20;;;24.20;99.90;;;;;;5069516;28;20661;-50
2022/06/22 08:48:47;;;;;;;8.68;3.67;;;24.40;99.90;;;;;;5069436;28;20040;-53
2022/06/22 08:51:22;;;;;;;11.38;3.75;;;24.80;99.90;;;;;;5069551;28;20048;-52
2022/06/22 08:54:03;;;;;;;5.40;3.40;;;24.90;99.90;;;;;;5069621;28;20045;-54
2022/06/22 08:56:51;;;;;;;5.47;2.83;;;24.90;99.90;;;;;;5069485;28;20040;-52
2022/06/22 09:00:00;;;;;;;11.00;3.83;;;24.90;99.90;;;;;;5069383;28;20522;-54
2022/06/22 09:02:31;;;;;;;7.30;3.15;;;25.20;99.90;;;;;;5040044;28;20056;-52
2022/06/22 09:05:12;;;;;;;9.00;3.55;;;25.20;99.90;;;;;;5049257;28;20045;-52
2022/06/22 09:08:13;;;;;;;29.50;5.82;;;25.20;99.90;;;;;;5049376;28;20037;-54
2022/06/22 09:10:39;;;;;;;8.80;3.65;;;25.40;99.90;;;;;;5049371;28;20037;-53
2022/06/22 09:13:22;;;;;;;9.40;3.28;;;25.20;99.90;;;;;;5065312;28;20406;-54
2022/06/22 09:16:18;;;;;;;8.75;3.55;;;25.70;99.90;;;;;;5070743;28;20092;-52
2022/06/22 09:18:52;;;;;;;5.75;3.08;;;25.70;99.90;;;;;;5071296;28;20036;-53
2022/06/22 09:21:58;;;;;;;8.40;3.00;;;25.90;99.90;;;;;;5071653;28;20054;-52
2022/06/22 09:24:45;;;;;;;6.70;2.85;;;25.80;99.50;;;;;;5060936;28;20045;-53
2022/06/22 09:27:32;;;;;;;11.77;3.65;;;25.80;99.90;;;;;;5071480;28;20036;-53
2022/06/22 09:30:10;;;;;;;5.85;2.70;;;25.90;99.90;;;;;;5071760;28;20102;-53
2022/06/22 09:32:44;;;;;;;9.80;3.17;;;26.20;99.90;;;;;;5058272;28;20040;-54
2022/06/22 09:35:13;;;;;;;6.85;3.17;;;26.00;99.90;;;;;;5071350;28;20032;-54
2022/06/22 09:38:10;;;;;;;9.35;3.58;;;26.30;99.80;;;;;;5070253;28;20535;-55
2022/06/22 09:41:00;;;;;;;32.03;5.97;;;26.20;98.00;;;;;;5074296;28;20047;-53
2022/06/22 09:43:29;;;;;;;8.57;3.25;;;26.30;99.20;;;;;;5075146;28;20040;-52
2022/06/22 09:45:54;;;;;;;;;;;26.20;98.70;;;;;;5075215;28;20493;-53
2022/06/22 09:48:28;;;;;;;10.80;3.63;;;26.40;99.40;;;;;;5075363;28;19916;-54
2022/06/22 09:51:01;;;;;;;4.78;3.08;;;26.40;98.80;;;;;;5074738;28;20040;-53
2022/06/22 09:53:35;;;;;;;5.63;2.50;;;26.20;99.20;;;;;;5074827;28;20041;-53
2022/06/22 09:56:25;;;;;;;11.88;3.55;;;26.20;99.20;;;;;;5074991;28;20032;-53
2022/06/22 09:59:16;;;;;;;13.07;3.08;;;26.50;99.30;;;;;;5075872;28;20044;-54
2022/06/22 10:01:44;;;;;;;8.52;3.42;;;26.60;99.10;;;;;;5091826;28;20047;-53
2022/06/22 10:04:25;;;;;;;;;;;26.70;98.40;;;;;;5078513;28;20119;-53
2022/06/22 10:07:15;;;;;;;;;;;26.80;97.30;;;;;;5095142;28;19915;-53
2022/06/22 10:10:21;;;;;;;7.00;3.13;;;26.90;99.60;;;;;;5094479;28;20390;-53
2022/06/22 10:12:59;;;;;;;7.72;3.67;;;26.70;97.60;;;;;;5089169;28;20040;-53
2022/06/22 10:15:46;;;;;;;7.03;2.50;;;26.70;98.90;;;;;;5094946;28;20394;-53
2022/06/22 10:18:21;;;;;;;7.85;2.63;;;26.90;98.70;;;;;;5094348;28;20482;-52
2022/06/22 10:20:52;;;;;;;6.93;3.30;;;27.20;98.90;;;;;;5095008;28;20046;-54
2022/06/22 10:24:05;;;;;;;10.90;4.15;;;27.20;98.90;;;;;;5094549;28;20044;-53
2022/06/22 10:27:07;;;;;;;6.68;3.40;;;27.00;98.70;;;;;;5072028;28;20517;-52
2022/06/22 10:29:41;;;;;;;11.63;3.60;;;27.20;98.70;;;;;;5068599;28;20079;-53
2022/06/22 10:32:27;;;;;;;16.40;4.18;;;27.20;99.20;;;;;;5056116;28;20448;-52
2022/06/22 10:35:23;;;;;;;11.65;3.72;;;27.40;99.50;;;;;;5071720;28;20041;-53
2022/06/22 10:37:52;;;;;;;10.32;4.05;;;27.30;98.30;;;;;;5060502;28;20048;-52
2022/06/22 10:46:57;;;;;;;8.95;3.88;;;27.00;98.90;;;;;;5006039;28;20046;-53
2022/06/22 10:49:43;;;;;;;8.13;4.28;;;26.90;98.90;;;;;;5011853;28;20041;-53
2022/06/22 10:52:22;;;;;;;6.93;3.95;;;27.00;99.10;;;;;;5010743;28;20041;-53
2022/06/22 10:54:51;;;;;;;;;;;27.20;98.70;;;;;;5012375;28;20148;-53
2022/06/22 10:57:48;;;;;;;9.15;4.47;;;27.00;98.80;;;;;;5021535;28;20415;-53
2022/06/22 11:00:41;;;;;;;10.45;4.60;;;27.00;98.20;;;;;;5031565;28;20058;-53
2022/06/22 11:03:25;;;;;;;9.63;4.30;;;27.50;99.00;;;;;;5031683;28;20045;-53
2022/06/22 11:06:09;;;;;;;10.40;3.75;;;27.50;98.40;;;;;;5031315;28;20045;-48
2022/06/22 11:09:01;;;;;;;8.20;3.60;;;27.40;99.30;;;;;;5030945;28;20084;-56
2022/06/22 11:11:41;;;;;;;6.68;3.78;;;29.30;98.00;;;;;;5031223;28;20045;-56
2022/06/22 11:14:23;;;;;;;7.97;4.07;;;29.60;97.50;;;;;;5030837;28;20042;-56
2022/06/22 11:17:05;;;;;;;9.27;3.65;;;30.10;96.80;;;;;;5031076;28;20069;-57
2022/06/22 11:19:56;;;;;;;7.20;3.20;;;31.20;96.00;;;;;;5045091;28;20455;-57
2022/06/22 11:22:40;;;;;;;6.85;3.88;;;31.60;96.70;;;;;;5093376;28;20040;-57
2022/06/22 11:31:43;;;;;;;10.13;3.67;;;33.10;95.20;;;;;;5092698;28;20064;-57
2022/06/22 11:34:33;;;;;;;8.53;3.03;;;33.40;93.00;;;;;;5092289;28;20051;-57
2022/06/22 11:37:08;;;;;;;10.20;3.70;;;33.70;94.40;;;;;;5092959;28;20040;-57
2022/06/22 11:39:51;;;;;;;8.73;3.88;;;34.20;93.90;;;;;;5092708;28;20058;-56
2022/06/22 11:42:37;;;;;;;5.72;3.08;;;32.70;93.00;;;;;;5093245;28;20460;-56
2022/06/22 11:48:42;;;;;;;6.78;2.75;;;33.80;93.30;;;;;;5070025;28;20122;-57
2022/06/22 11:51:35;;;;;;;6.50;2.83;;;34.00;92.30;;;;;;5069958;28;20071;-56
2022/06/22 11:54:14;;;;;;;6.95;2.90;;;34.60;92.10;;;;;;5070161;28;20162;-57
2022/06/22 11:57:01;;;;;;;8.27;3.80;;;34.90;92.30;;;;;;5070066;28;20422;-57
2022/06/22 11:59:54;;;;;;;7.57;3.30;;;34.90;92.10;;;;;;5070243;28;20114;-57
2022/06/22 12:02:40;;;;;;;8.07;3.40;;;34.80;91.80;;;;;;5069779;28;20044;-58
2022/06/22 12:05:35;;;;;;;10.25;3.47;;;34.80;92.20;;;;;;5069657;28;20512;-57
2022/06/22 12:08:35;;;;;;;17.67;4.57;;;34.80;92.20;;;;;;5069850;28;20051;-57
2022/06/22 12:11:23;;;;;;;13.68;3.35;;;34.10;91.50;;;;;;5067270;28;20381;-57
2022/06/22 12:17:23;;;;;;;14.90;4.53;;;34.80;92.10;;;;;;5061366;28;20111;-56
2022/06/22 12:20:07;;;;;;;6.40;3.30;;;34.50;92.10;;;;;;5046889;28;20052;-57
2022/06/22 12:22:41;;;;;;;8.30;3.05;;;34.10;90.70;;;;;;5049714;28;20060;-57
2022/06/22 12:25:16;;;;;;;7.50;3.10;;;33.90;91.00;;;;;;5086231;28;20051;-57
2022/06/22 12:27:49;;;;;;;7.78;3.20;;;34.40;91.70;;;;;;5090671;28;20125;-56
2022/06/22 12:30:36;;;;;;;15.32;3.97;;;34.80;91.20;;;;;;5071894;28;20090;-56
2022/06/22 12:33:08;;;;;;;7.25;3.33;;;34.90;91.10;;;;;;5080391;28;20048;-56
2022/06/22 12:35:38;;;;;;;8.20;3.00;;;34.80;91.00;;;;;;5091753;28;20093;-56
2022/06/22 12:38:22;;;;;;;14.95;3.92;;;34.70;90.90;;;;;;5091918;28;20109;-56
2022/06/22 12:41:11;;;;;;;5.32;3.05;;;34.70;90.70;;;;;;5091820;28;20111;-56
2022/06/22 12:44:01;;;;;;;8.23;2.75;;;34.60;91.30;;;;;;5091683;28;20123;-57
2022/06/22 12:46:51;;;;;;;5.63;2.92;;;34.60;91.20;;;;;;5065615;28;20056;-57
2022/06/22 12:49:55;;;;;;;6.75;2.78;;;34.40;91.10;;;;;;5070357;28;20049;-58
2022/06/22 12:52:33;;;;;;;7.57;2.88;;;34.50;90.60;;;;;;5049317;28;20084;-58
2022/06/22 12:55:04;;;;;;;9.43;3.38;;;34.60;91.10;;;;;;5049055;28;20372;-57
2022/06/22 12:57:40;;;;;;;7.05;3.50;;;34.80;90.50;;;;;;5032272;28;20048;-58
2022/06/22 13:00:12;;;;;;;6.57;3.50;;;34.70;91.00;;;;;;5049162;28;20041;-58
2022/06/22 13:02:40;;;;;;;9.45;2.85;;;34.70;90.40;;;;;;5049200;28;20479;-57
2022/06/22 13:05:11;;;;;;;23.25;4.88;;;34.40;90.80;;;;;;5049174;28;20553;-57
2022/06/22 13:07:42;;;;;;;6.50;2.83;;;34.50;90.50;;;;;;5049079;28;20033;-57
2022/06/22 13:10:14;;;;;;;16.67;3.88;;;34.20;90.60;;;;;;5065826;28;20053;-57
2022/06/22 13:12:49;;;;;;;5.28;2.92;;;34.00;91.20;;;;;;5052063;28;20383;-57
2022/06/22 13:15:37;;;;;;;5.97;3.05;;;33.60;90.80;;;;;;5051684;28;20052;-57
2022/06/22 13:18:33;;;;;;;8.18;3.13;;;32.80;91.10;;;;;;5053166;28;20564;-57
2022/06/22 13:21:12;;;;;;;7.60;2.75;;;33.00;90.80;;;;;;5053122;28;20094;-56
2022/06/22 13:23:47;;;;;;;4.40;2.58;;;33.50;91.00;;;;;;5053205;28;20045;-56
2022/06/22 13:26:35;;;;;;;9.15;3.45;;;33.30;91.70;;;;;;5053053;28;20121;-57
2022/06/22 13:29:15;;;;;;;5.63;2.85;;;32.90;91.60;;;;;;5054105;28;20056;-57
2022/06/22 13:31:43;;;;;;;7.55;3.45;;;33.10;91.70;;;;;;5062562;28;20040;-55
2022/06/22 13:34:17;;;;;;;6.28;3.60;;;32.60;91.70;;;;;;5074972;28;20033;-57
2022/06/22 13:36:48;;;;;;;9.88;4.28;;;32.30;92.50;;;;;;5062747;28;20040;-57
2022/06/22 13:39:32;;;;;;;9.18;3.95;;;32.30;92.40;;;;;;5074968;28;20518;-57
2022/06/22 13:42:09;;;;;;;7.10;3.80;;;32.20;93.20;;;;;;5063224;28;20037;-57
2022/06/22 13:44:45;;;;;;;8.68;3.95;;;32.30;92.30;;;;;;5074578;28;20037;-57
2022/06/22 13:47:34;;;;;;;9.10;3.80;;;32.60;92.90;;;;;;5075031;28;20044;-57
2022/06/22 13:51:08;;;;;;;7.75;3.30;;;32.50;93.00;;;;;;5074762;28;20072;-56
2022/06/22 13:53:53;;;;;;;11.43;3.03;;;32.30;93.10;;;;;;5051616;28;20033;-56
2022/06/22 13:57:01;;;;;;;7.78;3.70;;;30.70;93.50;;;;;;5052384;28;20045;-55
2022/06/22 13:59:51;;;;;;;10.65;3.70;;;30.60;93.70;;;;;;5052245;28;20053;-56
2022/06/22 14:02:34;;;;;;;7.32;4.00;;;30.60;94.40;;;;;;5052590;28;20041;-55
2022/06/22 14:05:19;;;;;;;8.25;4.28;;;30.30;94.10;;;;;;5067233;28;20124;-56
2022/06/22 14:08:01;;;;;;;8.82;3.97;;;30.30;94.00;;;;;;5035544;28;20040;-55
2022/06/22 14:11:02;;;;;;;6.55;3.75;;;30.20;94.50;;;;;;5052100;28;20132;-56
2022/06/22 14:13:42;;;;;;;13.60;4.43;;;29.60;94.10;;;;;;5052171;28;20041;-57